Time;durP1;ratioP1;P1;durP2;ratioP2;P2;SDS_P1;SDS_P2;PMS_P1;PMS_P2;Temp;Humidity;BMP_temperature;BMP_pressure;BME280_temperature;BME280_humidity;BME280_pressure;Samples;Min_cycle;Max_cycle;Signal;HPM_P1;HPM_P2
2023/08/20 00:01:53;;;;;;;;;;;;;;;;;;4960455;28;19933;-93
2023/08/20 00:04:23;;;;;;;;;;;;;;;;;;4936844;28;19922;-92
2023/08/20 00:06:49;;;;;;;;;;;;;;;;;;4941388;28;19919;-89
2023/08/20 00:09:15;;;;;;;;;;;;;;;;;;4938351;29;19914;-89
2023/08/20 00:11:41;;;;;;;;;;;;;;;;;;4955121;28;21593;-90
2023/08/20 00:14:07;;;;;;;;;;;;;;;;;;4944271;29;19918;-90
2023/08/20 00:16:33;;;;;;;;;;;;;;;;;;4943538;28;19911;-90
2023/08/20 00:18:59;;;;;;;;;;;;;;;;;;4953502;28;19910;-90
2023/08/20 00:21:25;;;;;;;;;;;;;;;;;;4931819;29;19956;-88
2023/08/20 00:23:55;;;;;;;;;;;;;;;;;;4952648;28;19921;-90
2023/08/20 00:26:21;;;;;;;;;;;;;;;;;;4949981;28;19960;-90
2023/08/20 00:28:47;;;;;;;;;;;;;;;;;;4939332;28;20012;-89
2023/08/20 00:31:13;;;;;;;;;;;;;;;;;;4937604;28;19960;-89
2023/08/20 00:33:40;;;;;;;;;;;;;;;;;;4950725;28;19914;-89
2023/08/20 00:36:09;;;;;;;;;;;;;;;;;;4941012;28;19925;-89
2023/08/20 00:38:35;;;;;;;;;;;;;;;;;;4935132;29;19922;-90
2023/08/20 00:41:01;;;;;;;;;;;;;;;;;;4937422;28;19910;-89
2023/08/20 00:43:28;;;;;;;;;;;;;;;;;;4941569;28;19914;-89
2023/08/20 00:45:54;;;;;;;;;;;;;;;;;;4953302;28;19910;-89
2023/08/20 00:48:20;;;;;;;;;;;;;;;;;;4952204;28;19944;-90
2023/08/20 00:50:46;;;;;;;;;;;;;;;;;;4941787;28;19918;-89
2023/08/20 00:53:16;;;;;;;;;;;;;;;;;;4936903;29;19946;-89
2023/08/20 00:55:43;;;;;;;;;;;;;;;;;;4934132;29;19956;-89
2023/08/20 00:58:09;;;;;;;;;;;;;;;;;;4952909;28;19910;-89
2023/08/20 01:00:35;;;;;;;;;;;;;;;;;;4936082;28;20019;-89
2023/08/20 01:03:01;;;;;;;;;;;;;;;;;;4938781;29;19921;-90
2023/08/20 01:05:27;;;;;;;;;;;;;;;;;;4937237;28;20388;-90
2023/08/20 01:07:56;;;;;;;;;;;;;;;;;;4939094;29;19918;-89
2023/08/20 01:10:22;;;;;;;;;;;;;;;;;;4936188;28;20330;-89
2023/08/20 01:12:48;;;;;;;;;;;;;;;;;;4938735;28;19922;-89
2023/08/20 01:15:14;;;;;;;;;;;;;;;;;;4938255;28;19910;-89
2023/08/20 01:17:40;;;;;;;;;;;;;;;;;;4950046;28;19933;-88
2023/08/20 01:20:05;;;;;;;;;;;;;;;;;;4952336;28;19993;-88
2023/08/20 01:22:31;;;;;;;;;;;;;;;;;;4937431;29;19921;-88
2023/08/20 01:24:57;;;;;;;;;;;;;;;;;;4935601;28;19910;-88
2023/08/20 01:27:23;;;;;;;;;;;;;;;;;;4945227;28;19933;-88
2023/08/20 01:29:49;;;;;;;;;;;;;;;;;;4957807;28;19918;-89
2023/08/20 01:32:15;;;;;;;;;;;;;;;;;;4956474;28;20575;-89
2023/08/20 01:34:42;;;;;;;;;;;;;;;;;;4975179;28;19910;-88
2023/08/20 01:37:08;;;;;;;;;;;;;;;;;;4970612;28;19914;-88
2023/08/20 01:39:34;;;;;;;;;;;;;;;;;;4970965;28;19999;-88
2023/08/20 01:42:00;;;;;;;;;;;;;;;;;;4976403;28;19918;-87
2023/08/20 01:44:26;;;;;;;;;;;;;;;;;;4963201;28;19919;-89
2023/08/20 01:46:52;;;;;;;;;;;;;;;;;;4955645;28;19982;-88
2023/08/20 01:49:18;;;;;;;;;;;;;;;;;;4973268;28;19910;-89
2023/08/20 01:51:44;;;;;;;;;;;;;;;;;;4959131;28;20402;-88
2023/08/20 01:54:10;;;;;;;;;;;;;;;;;;4959787;28;19968;-89
2023/08/20 01:56:36;;;;;;;;;;;;;;;;;;4961794;28;19965;-89
2023/08/20 01:59:02;;;;;;;;;;;;;;;;;;4977797;28;20309;-88
2023/08/20 02:01:28;;;;;;;;;;;;;;;;;;4978022;28;19937;-88
2023/08/20 02:03:54;;;;;;;;;;;;;;;;;;4956721;28;19936;-88
2023/08/20 02:06:20;;;;;;;;;;;;;;;;;;4964775;28;20016;-88
2023/08/20 02:08:47;;;;;;;;;;;;;;;;;;4957308;28;19956;-88
2023/08/20 02:11:13;;;;;;;;;;;;;;;;;;4961044;28;19936;-88
2023/08/20 02:13:39;;;;;;;;;;;;;;;;;;4960222;28;19993;-89
2023/08/20 02:16:06;;;;;;;;;;;;;;;;;;4975596;28;19973;-89
2023/08/20 02:18:32;;;;;;;;;;;;;;;;;;4957056;28;20455;-89
2023/08/20 02:20:58;;;;;;;;;;;;;;;;;;4973226;28;20005;-89
2023/08/20 02:23:24;;;;;;;;;;;;;;;;;;4959356;28;19909;-90
2023/08/20 02:25:50;;;;;;;;;;;;;;;;;;4968308;28;19953;-91
2023/08/20 02:28:16;;;;;;;;;;;;;;;;;;4974906;28;19918;-93
2023/08/20 02:30:42;;;;;;;;;;;;;;;;;;4962890;28;19914;-93
2023/08/20 02:33:08;;;;;;;;;;;;;;;;;;4976894;28;20362;-92
2023/08/20 02:35:34;;;;;;;;;;;;;;;;;;4977057;28;20044;-93
2023/08/20 02:38:00;;;;;;;;;;;;;;;;;;4961923;28;19917;-92
2023/08/20 02:40:26;;;;;;;;;;;;;;;;;;4956403;28;19917;-93
2023/08/20 02:42:52;;;;;;;;;;;;;;;;;;4960243;28;19906;-92
2023/08/20 02:45:18;;;;;;;;;;;;;;;;;;4953859;28;19925;-92
2023/08/20 02:47:44;;;;;;;;;;;;;;;;;;4967703;28;20425;-93
2023/08/20 02:50:10;;;;;;;;;;;;;;;;;;4963259;28;19953;-94
2023/08/20 02:52:36;;;;;;;;;;;;;;;;;;4961604;28;19968;-93
2023/08/20 02:55:04;;;;;;;;;;;;;;;;;;4962495;28;19924;-93
2023/08/20 02:57:30;;;;;;;;;;;;;;;;;;4979467;28;19914;-93
2023/08/20 02:59:56;;;;;;;;;;;;;;;;;;4964280;28;20008;-94
2023/08/20 03:02:22;;;;;;;;;;;;;;;;;;4962564;28;19965;-93
2023/08/20 03:04:48;;;;;;;;;;;;;;;;;;4959545;28;20408;-93
2023/08/20 03:07:14;;;;;;;;;;;;;;;;;;4963825;28;19910;-92
2023/08/20 03:09:40;;;;;;;;;;;;;;;;;;4962936;28;19981;-94
2023/08/20 03:12:06;;;;;;;;;;;;;;;;;;4966448;28;19937;-94
2023/08/20 03:14:32;;;;;;;;;;;;;;;;;;4973943;28;19909;-93
2023/08/20 03:16:58;;;;;;;;;;;;;;;;;;4976567;28;19976;-93
2023/08/20 03:19:24;;;;;;;;;;;;;;;;;;4961709;28;19938;-92
2023/08/20 03:21:50;;;;;;;;;;;;;;;;;;4975916;28;19910;-93
2023/08/20 03:24:16;;;;;;;;;;;;;;;;;;4962324;28;19942;-93
2023/08/20 03:26:42;;;;;;;;;;;;;;;;;;4966584;28;19906;-93
2023/08/20 03:29:08;;;;;;;;;;;;;;;;;;4958029;28;19949;-93
2023/08/20 03:31:34;;;;;;;;;;;;;;;;;;4942365;28;19921;-94
2023/08/20 03:34:00;;;;;;;;;;;;;;;;;;4941997;28;19915;-93
2023/08/20 03:36:25;;;;;;;;;;;;;;;;;;4932053;28;19912;-90
2023/08/20 03:38:52;;;;;;;;;;;;;;;;;;4952348;28;19949;-91
2023/08/20 03:41:18;;;;;;;;;;;;;;;;;;4953950;28;20311;-90
2023/08/20 03:43:43;;;;;;;;;;;;;;;;;;4937453;29;19921;-90
2023/08/20 03:46:12;;;;;;;;;;;;;;;;;;4930620;28;20004;-89
2023/08/20 03:48:38;;;;;;;;;;;;;;;;;;4936038;29;20394;-89
2023/08/20 03:51:04;;;;;;;;;;;;;;;;;;4940961;28;19965;-90
2023/08/20 03:53:30;;;;;;;;;;;;;;;;;;4937881;29;19911;-89
2023/08/20 03:55:56;;;;;;;;;;;;;;;;;;4938988;28;19925;-90
2023/08/20 03:58:22;;;;;;;;;;;;;;;;;;4941236;29;19915;-89
2023/08/20 04:00:48;;;;;;;;;;;;;;;;;;4941359;28;20322;-90
2023/08/20 04:03:14;;;;;;;;;;;;;;;;;;4938229;29;19946;-89
2023/08/20 04:05:40;;;;;;;;;;;;;;;;;;4936167;28;19918;-90
2023/08/20 04:08:06;;;;;;;;;;;;;;;;;;4939460;28;19910;-89
2023/08/20 04:10:32;;;;;;;;;;;;;;;;;;4935629;28;19922;-90
2023/08/20 04:12:58;;;;;;;;;;;;;;;;;;4954271;28;19906;-89
2023/08/20 04:15:24;;;;;;;;;;;;;;;;;;4940106;29;20048;-91
2023/08/20 04:17:50;;;;;;;;;;;;;;;;;;4934670;29;20433;-90
2023/08/20 04:20:16;;;;;;;;;;;;;;;;;;4939066;28;20180;-90
2023/08/20 04:22:42;;;;;;;;;;;;;;;;;;4937432;29;19918;-89
2023/08/20 04:25:10;;;;;;;;;;;;;;;;;;4938790;29;19906;-90
2023/08/20 04:27:36;;;;;;;;;;;;;;;;;;4936218;28;19914;-89
2023/08/20 04:30:02;;;;;;;;;;;;;;;;;;4938018;28;19945;-90
2023/08/20 04:32:31;;;;;;;;;;;;;;;;;;4940882;28;19926;-89
2023/08/20 04:34:57;;;;;;;;;;;;;;;;;;4942934;28;19953;-89
2023/08/20 04:37:23;;;;;;;;;;;;;;;;;;4940705;28;19937;-90
2023/08/20 04:39:49;;;;;;;;;;;;;;;;;;4935043;28;20738;-90
2023/08/20 04:42:15;;;;;;;;;;;;;;;;;;4954953;28;19949;-89
2023/08/20 04:44:41;;;;;;;;;;;;;;;;;;4939295;28;19910;-90
2023/08/20 04:47:07;;;;;;;;;;;;;;;;;;4952482;28;19918;-90
2023/08/20 04:49:33;;;;;;;;;;;;;;;;;;4938009;28;20088;-91
2023/08/20 04:51:59;;;;;;;;;;;;;;;;;;4953368;28;19914;-90
2023/08/20 04:54:25;;;;;;;;;;;;;;;;;;4942319;28;19921;-91
2023/08/20 04:56:51;;;;;;;;;;;;;;;;;;4932777;29;19910;-90
2023/08/20 04:59:17;;;;;;;;;;;;;;;;;;4935492;28;20002;-91
2023/08/20 05:01:43;;;;;;;;;;;;;;;;;;4941865;29;19921;-92
2023/08/20 05:04:09;;;;;;;;;;;;;;;;;;4941116;28;20282;-91
2023/08/20 05:06:35;;;;;;;;;;;;;;;;;;4941002;29;19982;-91
2023/08/20 05:09:10;;;;;;;;;;;;;;;;;;4940260;29;19921;-91
2023/08/20 05:11:37;;;;;;;;;;;;;;;;;;4940994;28;19917;-92
2023/08/20 05:14:03;;;;;;;;;;;;;;;;;;4933824;28;20125;-91
2023/08/20 05:16:29;;;;;;;;;;;;;;;;;;4957288;28;19946;-91
2023/08/20 05:18:55;;;;;;;;;;;;;;;;;;4941288;29;19949;-92
2023/08/20 05:21:21;;;;;;;;;;;;;;;;;;4943811;29;19914;-92
2023/08/20 05:23:54;;;;;;;;;;;;;;;;;;4939659;28;19921;-91
2023/08/20 05:26:24;;;;;;;;;;;;;;;;;;4934043;28;19910;-91
2023/08/20 05:28:50;;;;;;;;;;;;;;;;;;4941031;28;19924;-91
2023/08/20 05:31:16;;;;;;;;;;;;;;;;;;4945714;28;19914;-91
2023/08/20 05:33:41;;;;;;;;;;;;;;;;;;4942694;28;19936;-91
2023/08/20 05:36:07;;;;;;;;;;;;;;;;;;4943837;29;19924;-91
2023/08/20 05:38:36;;;;;;;;;;;;;;;;;;4938677;28;19914;-91
2023/08/20 05:41:02;;;;;;;;;;;;;;;;;;4943020;29;20406;-91
2023/08/20 05:43:28;;;;;;;;;;;;;;;;;;4933359;28;19925;-91
2023/08/20 05:46:00;;;;;;;;;;;;;;;;;;4943234;29;19911;-91
2023/08/20 05:48:26;;;;;;;;;;;;;;;;;;4956696;28;19910;-91
2023/08/20 05:50:52;;;;;;;;;;;;;;;;;;4939953;29;20494;-91
2023/08/20 05:53:18;;;;;;;;;;;;;;;;;;4955064;28;19945;-90
2023/08/20 05:55:44;;;;;;;;;;;;;;;;;;4938977;29;19911;-91
2023/08/20 05:58:11;;;;;;;;;;;;;;;;;;4933715;28;19917;-91
2023/08/20 06:00:37;;;;;;;;;;;;;;;;;;4944754;28;19945;-91
2023/08/20 06:03:03;;;;;;;;;;;;;;;;;;4944137;29;19914;-92
2023/08/20 06:05:29;;;;;;;;;;;;;;;;;;4952947;28;20429;-90
2023/08/20 06:07:54;;;;;;;;;;;;;;;;;;4939731;29;20414;-91
2023/08/20 06:10:22;;;;;;;;;;;;;;;;;;4955712;28;19929;-92
2023/08/20 06:12:48;;;;;;;;;;;;;;;;;;4939101;28;20286;-91
2023/08/20 06:15:14;;;;;;;;;;;;;;;;;;4955523;28;19961;-91
2023/08/20 06:17:40;;;;;;;;;;;;;;;;;;4934988;28;19921;-91
2023/08/20 06:20:08;;;;;;;;;;;;;;;;;;4942211;28;20167;-91
2023/08/20 06:22:34;;;;;;;;;;;;;;;;;;4944901;28;19977;-91
2023/08/20 06:25:00;;;;;;;;;;;;;;;;;;4956151;28;19910;-91
2023/08/20 06:27:26;;;;;;;;;;;;;;;;;;4945043;28;20347;-92
2023/08/20 06:29:52;;;;;;;;;;;;;;;;;;4946355;28;19927;-91
2023/08/20 06:32:18;;;;;;;;;;;;;;;;;;4940275;28;19922;-91
2023/08/20 06:34:44;;;;;;;;;;;;;;;;;;4945270;29;19910;-92
2023/08/20 06:37:10;;;;;;;;;;;;;;;;;;4940877;29;20422;-92
2023/08/20 06:39:36;;;;;;;;;;;;;;;;;;4939843;28;19914;-91
2023/08/20 06:42:02;;;;;;;;;;;;;;;;;;4944664;29;19918;-92
2023/08/20 06:44:28;;;;;;;;;;;;;;;;;;4938777;28;19917;-92
2023/08/20 06:46:54;;;;;;;;;;;;;;;;;;4933296;28;20378;-91
2023/08/20 06:49:20;;;;;;;;;;;;;;;;;;4947802;28;20005;-91
2023/08/20 06:51:46;;;;;;;;;;;;;;;;;;4940516;28;19922;-92
2023/08/20 06:54:12;;;;;;;;;;;;;;;;;;4939953;28;19914;-91
2023/08/20 06:56:45;;;;;;;;;;;;;;;;;;4938743;28;19936;-92
2023/08/20 06:59:11;;;;;;;;;;;;;;;;;;4950974;28;20346;-92
2023/08/20 07:01:37;;;;;;;;;;;;;;;;;;4944104;28;20349;-91
2023/08/20 07:04:02;;;;;;;;;;;;;;;;;;4936385;29;20001;-91
2023/08/20 07:06:28;;;;;;;;;;;;;;;;;;4944187;29;19914;-92
2023/08/20 07:08:54;;;;;;;;;;;;;;;;;;4933328;29;20397;-91
2023/08/20 07:11:20;;;;;;;;;;;;;;;;;;4954507;28;20367;-91
2023/08/20 07:13:46;;;;;;;;;;;;;;;;;;4937068;28;20263;-91
2023/08/20 07:16:12;;;;;;;;;;;;;;;;;;4932155;28;19919;-91
2023/08/20 07:18:38;;;;;;;;;;;;;;;;;;4952859;28;19910;-91
2023/08/20 07:21:04;;;;;;;;;;;;;;;;;;4936807;29;19914;-92
2023/08/20 07:23:30;;;;;;;;;;;;;;;;;;4937373;29;19910;-92
2023/08/20 07:25:56;;;;;;;;;;;;;;;;;;4931008;28;19914;-92
2023/08/20 07:31:09;;;;;;;;;;;;;;;;;;4947581;28;19944;-92
2023/08/20 07:33:50;;;;;;;;;;;;;;;;;;4977720;28;19914;-93
2023/08/20 07:36:16;;;;;;;;;;;;;;;;;;4962645;28;19932;-92
2023/08/20 07:38:42;;;;;;;;;;;;;;;;;;4960733;28;19977;-92
2023/08/20 07:41:08;;;;;;;;;;;;;;;;;;4976927;28;20051;-92
2023/08/20 07:43:34;;;;;;;;;;;;;;;;;;4971762;28;19922;-91
2023/08/20 07:46:00;;;;;;;;;;;;;;;;;;4955540;28;20309;-90
2023/08/20 07:48:26;;;;;;;;;;;;;;;;;;4955815;28;19914;-89
2023/08/20 07:50:52;;;;;;;;;;;;;;;;;;4955579;28;19925;-89
2023/08/20 07:53:18;;;;;;;;;;;;;;;;;;4958009;28;19914;-90
2023/08/20 07:55:44;;;;;;;;;;;;;;;;;;4974491;28;19911;-90
2023/08/20 07:58:10;;;;;;;;;;;;;;;;;;4973580;28;19914;-91
2023/08/20 08:00:36;;;;;;;;;;;;;;;;;;4976547;28;19929;-91
2023/08/20 08:03:06;;;;;;;;;;;;;;;;;;4955663;28;19980;-91
2023/08/20 08:05:32;;;;;;;;;;;;;;;;;;4956222;28;19918;-91
2023/08/20 08:07:58;;;;;;;;;;;;;;;;;;4959341;28;20076;-90
2023/08/20 08:10:24;;;;;;;;;;;;;;;;;;4954444;28;19913;-91
2023/08/20 08:12:50;;;;;;;;;;;;;;;;;;4955495;28;19910;-89
2023/08/20 08:15:34;;;;;;;;;;;;;;;;;;4971131;28;19910;-91
2023/08/20 08:18:00;;;;;;;;;;;;;;;;;;4956341;28;20002;-91
2023/08/20 08:20:26;;;;;;;;;;;;;;;;;;4974479;28;19989;-91
2023/08/20 08:22:52;;;;;;;;;;;;;;;;;;4953737;28;19917;-91
2023/08/20 08:25:19;;;;;;;;;;;;;;;;;;4971014;28;20230;-90
2023/08/20 08:27:46;;;;;;;;;;;;;;;;;;4966073;28;19913;-91
2023/08/20 08:30:12;;;;;;;;;;;;;;;;;;4959844;28;19972;-91
2023/08/20 08:32:38;;;;;;;;;;;;;;;;;;4955042;28;20259;-91
2023/08/20 08:35:03;;;;;;;;;;;;;;;;;;4943058;28;19914;-91
2023/08/20 08:37:32;;;;;;;;;;;;;;;;;;4938781;29;19923;-91
2023/08/20 08:40:05;;;;;;;;;;;;;;;;;;4939505;29;19910;-89
2023/08/20 08:42:31;;;;;;;;;;;;;;;;;;4950982;28;19926;-91
2023/08/20 08:44:57;;;;;;;;;;;;;;;;;;4933087;28;19915;-90
2023/08/20 08:47:23;;;;;;;;;;;;;;;;;;4932958;29;19914;-90
2023/08/20 08:49:49;;;;;;;;;;;;;;;;;;4935810;28;19918;-90
2023/08/20 08:52:15;;;;;;;;;;;;;;;;;;4951640;28;20592;-91
2023/08/20 08:54:41;;;;;;;;;;;;;;;;;;4934985;28;19914;-90
2023/08/20 08:57:13;;;;;;;;;;;;;;;;;;4949689;28;20349;-90
2023/08/20 08:59:46;;;;;;;;;;;;;;;;;;4937708;28;19914;-91
2023/08/20 09:02:20;;;;;;;;;;;;;;;;;;4932768;28;20834;-91
2023/08/20 09:04:46;;;;;;;;;;;;;;;;;;4933566;28;19975;-91
2023/08/20 09:07:12;;;;;;;;;;;;;;;;;;4938206;29;19915;-90
2023/08/20 09:09:44;;;;;;;;;;;;;;;;;;4936638;28;20282;-90
2023/08/20 09:12:14;;;;;;;;;;;;;;;;;;4947969;28;20113;-90
2023/08/20 09:14:40;;;;;;;;;;;;;;;;;;4938458;29;19910;-90
2023/08/20 09:17:09;;;;;;;;;;;;;;;;;;4938641;28;19921;-90
2023/08/20 09:19:35;;;;;;;;;;;;;;;;;;4939144;29;19918;-90
2023/08/20 09:22:12;;;;;;;;;;;;;;;;;;4942332;29;20210;-91
2023/08/20 09:24:38;;;;;;;;;;;;;;;;;;4948020;28;20355;-91
2023/08/20 09:27:08;;;;;;;;;;;;;;;;;;4938268;28;19914;-93
2023/08/20 09:29:34;;;;;;;;;;;;;;;;;;4935703;28;20486;-92
2023/08/20 09:32:00;;;;;;;;;;;;;;;;;;4973267;28;19988;-93
2023/08/20 09:34:27;;;;;;;;;;;;;;;;;;4978534;28;20020;-92
2023/08/20 09:36:54;;;;;;;;;;;;;;;;;;4962599;28;19914;-94
2023/08/20 09:39:20;;;;;;;;;;;;;;;;;;4953605;28;19957;-93
2023/08/20 09:41:46;;;;;;;;;;;;;;;;;;4955260;28;20335;-94
2023/08/20 09:44:12;;;;;;;;;;;;;;;;;;4973056;28;19921;-93
2023/08/20 09:46:39;;;;;;;;;;;;;;;;;;4959680;28;19965;-93
2023/08/20 09:49:05;;;;;;;;;;;;;;;;;;4975762;28;19911;-94
2023/08/20 09:51:42;;;;;;;;;;;;;;;;;;4958234;28;20281;-93
2023/08/20 09:54:08;;;;;;;;;;;;;;;;;;4972846;28;20001;-93
2023/08/20 09:56:34;;;;;;;;;;;;;;;;;;4956942;28;19910;-92
2023/08/20 09:59:09;;;;;;;;;;;;;;;;;;4958679;28;19929;-94
2023/08/20 10:01:35;;;;;;;;;;;;;;;;;;4954871;28;19911;-93
2023/08/20 10:04:01;;;;;;;;;;;;;;;;;;4959727;28;19920;-93
2023/08/20 10:06:27;;;;;;;;;;;;;;;;;;4961782;28;19921;-92
2023/08/20 10:08:53;;;;;;;;;;;;;;;;;;4973757;28;20293;-94
2023/08/20 10:11:19;;;;;;;;;;;;;;;;;;4963907;28;19918;-93
2023/08/20 10:13:45;;;;;;;;;;;;;;;;;;4969873;28;19924;-92
2023/08/20 10:16:14;;;;;;;;;;;;;;;;;;4977638;28;19924;-93
2023/08/20 10:18:40;;;;;;;;;;;;;;;;;;4957101;28;20393;-92
2023/08/20 10:21:09;;;;;;;;;;;;;;;;;;4966364;28;19910;-92
2023/08/20 10:23:35;;;;;;;;;;;;;;;;;;4979487;28;19910;-92
2023/08/20 10:26:01;;;;;;;;;;;;;;;;;;4970728;28;19918;-93
2023/08/20 10:28:29;;;;;;;;;;;;;;;;;;4975736;28;19914;-93
2023/08/20 10:30:55;;;;;;;;;;;;;;;;;;4947038;28;20049;-93
2023/08/20 10:33:21;;;;;;;;;;;;;;;;;;4939168;28;20375;-92
2023/08/20 10:38:33;;;;;;;;;;;;;;;;;;4946958;28;20371;-91
2023/08/20 10:43:45;;;;;;;;;;;;;;;;;;4953694;28;19941;-91
2023/08/20 10:46:11;;;;;;;;;;;;;;;;;;4936230;29;19914;-90
2023/08/20 10:48:36;;;;;;;;;;;;;;;;;;4941003;28;19918;-90
2023/08/20 10:51:21;;;;;;;;;;;;;;;;;;4937913;29;19921;-90
2023/08/20 10:53:47;;;;;;;;;;;;;;;;;;4934241;28;19918;-90
2023/08/20 10:56:13;;;;;;;;;;;;;;;;;;4936597;28;19922;-90
2023/08/20 10:58:39;;;;;;;;;;;;;;;;;;4932691;29;19957;-90
2023/08/20 11:01:05;;;;;;;;;;;;;;;;;;4952108;28;19911;-90
2023/08/20 11:03:38;;;;;;;;;;;;;;;;;;4951203;28;19915;-90
2023/08/20 11:06:08;;;;;;;;;;;;;;;;;;4936607;28;19941;-90
2023/08/20 11:08:34;;;;;;;;;;;;;;;;;;4940251;28;19921;-90
2023/08/20 11:11:00;;;;;;;;;;;;;;;;;;4935710;28;19914;-90
2023/08/20 11:13:26;;;;;;;;;;;;;;;;;;4938250;28;20008;-90
2023/08/20 11:16:00;;;;;;;;;;;;;;;;;;4935002;28;20318;-90
2023/08/20 11:18:29;;;;;;;;;;;;;;;;;;4948163;28;19917;-90
2023/08/20 11:20:55;;;;;;;;;;;;;;;;;;4931045;28;19949;-91
2023/08/20 11:23:24;;;;;;;;;;;;;;;;;;4932635;29;19914;-90
2023/08/20 11:25:57;;;;;;;;;;;;;;;;;;4935384;28;19914;-91
2023/08/20 11:28:23;;;;;;;;;;;;;;;;;;4942163;28;19911;-91
2023/08/20 11:30:49;;;;;;;;;;;;;;;;;;4934248;28;22152;-91
2023/08/20 11:33:15;;;;;;;;;;;;;;;;;;4957644;28;19910;-91
2023/08/20 11:35:41;;;;;;;;;;;;;;;;;;4954584;28;20354;-91
2023/08/20 11:38:07;;;;;;;;;;;;;;;;;;4972482;28;20007;-90
2023/08/20 11:40:32;;;;;;;;;;;;;;;;;;4957887;28;19933;-90
2023/08/20 11:42:58;;;;;;;;;;;;;;;;;;4953853;28;19914;-91
2023/08/20 11:45:24;;;;;;;;;;;;;;;;;;4954286;28;19914;-92
2023/08/20 11:47:51;;;;;;;;;;;;;;;;;;4948149;28;19916;-91
2023/08/20 11:50:17;;;;;;;;;;;;;;;;;;4956448;28;20341;-91
2023/08/20 11:52:43;;;;;;;;;;;;;;;;;;4956949;28;19913;-90
2023/08/20 11:55:09;;;;;;;;;;;;;;;;;;4968190;28;19973;-90
2023/08/20 11:57:38;;;;;;;;;;;;;;;;;;4970267;28;19910;-91
2023/08/20 12:03:09;;;;;;;;;;;;;;;;;;4913793;29;19915;-91
2023/08/20 12:05:35;;;;;;;;;;;;;;;;;;4910120;29;20394;-90
2023/08/20 12:08:10;;;;;;;;;;;;;;;;;;4920335;28;19914;-91
2023/08/20 12:10:36;;;;;;;;;;;;;;;;;;4960402;28;19921;-91
2023/08/20 12:13:02;;;;;;;;;;;;;;;;;;4955403;28;19906;-90
2023/08/20 12:15:29;;;;;;;;;;;;;;;;;;4973688;28;19914;-91
2023/08/20 12:17:55;;;;;;;;;;;;;;;;;;4971293;28;19997;-91
2023/08/20 12:20:21;;;;;;;;;;;;;;;;;;4955848;28;19918;-91
2023/08/20 12:22:47;;;;;;;;;;;;;;;;;;4956781;28;19914;-91
2023/08/20 12:25:13;;;;;;;;;;;;;;;;;;4954707;28;20351;-90
2023/08/20 12:27:44;;;;;;;;;;;;;;;;;;4968781;28;20244;-90
2023/08/20 12:30:10;;;;;;;;;;;;;;;;;;4962672;28;20255;-90
2023/08/20 12:32:42;;;;;;;;;;;;;;;;;;4970112;28;19925;-91
2023/08/20 12:35:09;;;;;;;;;;;;;;;;;;4971139;28;19918;-91
2023/08/20 12:37:34;;;;;;;;;;;;;;;;;;4967374;28;20377;-90
2023/08/20 12:40:00;;;;;;;;;;;;;;;;;;4951811;28;19918;-90
2023/08/20 12:42:26;;;;;;;;;;;;;;;;;;4952223;28;19914;-91
2023/08/20 12:44:52;;;;;;;;;;;;;;;;;;4950468;28;19917;-91
2023/08/20 12:47:18;;;;;;;;;;;;;;;;;;4955238;28;20029;-90
2023/08/20 12:49:57;;;;;;;;;;;;;;;;;;4955038;28;20773;-90
2023/08/20 12:52:23;;;;;;;;;;;;;;;;;;4959188;28;19945;-90
2023/08/20 12:54:49;;;;;;;;;;;;;;;;;;4967009;28;19954;-90
2023/08/20 12:57:15;;;;;;;;;;;;;;;;;;4948077;28;19918;-91
2023/08/20 12:59:41;;;;;;;;;;;;;;;;;;4946869;28;19917;-91
2023/08/20 13:02:09;;;;;;;;;;;;;;;;;;4950014;28;20362;-91
2023/08/20 13:04:42;;;;;;;;;;;;;;;;;;4972242;28;19946;-91
2023/08/20 13:07:08;;;;;;;;;;;;;;;;;;4970258;28;19918;-90
2023/08/20 13:09:34;;;;;;;;;;;;;;;;;;4968931;28;19921;-90
2023/08/20 13:12:00;;;;;;;;;;;;;;;;;;4965804;28;19914;-90
2023/08/20 13:14:26;;;;;;;;;;;;;;;;;;4954710;28;19943;-92
2023/08/20 13:16:52;;;;;;;;;;;;;;;;;;4954115;28;19914;-90
2023/08/20 13:19:20;;;;;;;;;;;;;;;;;;4974085;28;20358;-90
2023/08/20 13:21:46;;;;;;;;;;;;;;;;;;4968845;28;19910;-91
2023/08/20 13:24:12;;;;;;;;;;;;;;;;;;4966226;28;19918;-90
2023/08/20 13:26:38;;;;;;;;;;;;;;;;;;4948008;28;19914;-91
2023/08/20 13:29:04;;;;;;;;;;;;;;;;;;4955894;28;20926;-90
2023/08/20 13:31:30;;;;;;;;;;;;;;;;;;4960548;28;20000;-91
2023/08/20 13:33:56;;;;;;;;;;;;;;;;;;4972103;28;19984;-90
2023/08/20 13:36:22;;;;;;;;;;;;;;;;;;4966752;28;19914;-91
2023/08/20 13:38:57;;;;;;;;;;;;;;;;;;4972675;28;19921;-90
2023/08/20 13:41:23;;;;;;;;;;;;;;;;;;4969975;28;19979;-91
2023/08/20 13:43:49;;;;;;;;;;;;;;;;;;4955225;28;19910;-91
2023/08/20 13:46:15;;;;;;;;;;;;;;;;;;4955704;28;19961;-91
2023/08/20 13:48:41;;;;;;;;;;;;;;;;;;4958027;28;20409;-91
2023/08/20 13:51:07;;;;;;;;;;;;;;;;;;4972080;28;20561;-91
2023/08/20 13:53:33;;;;;;;;;;;;;;;;;;4957760;28;19909;-91
2023/08/20 13:55:59;;;;;;;;;;;;;;;;;;4956512;28;20019;-91
2023/08/20 13:58:30;;;;;;;;;;;;;;;;;;4951429;28;19989;-91
2023/08/20 14:01:03;;;;;;;;;;;;;;;;;;4956435;28;21390;-91
2023/08/20 14:03:29;;;;;;;;;;;;;;;;;;4971562;28;20359;-92
2023/08/20 14:05:55;;;;;;;;;;;;;;;;;;4955856;28;20044;-93
2023/08/20 14:08:22;;;;;;;;;;;;;;;;;;4963949;28;20004;-93
2023/08/20 14:10:48;;;;;;;;;;;;;;;;;;4955937;28;19982;-94
2023/08/20 14:13:14;;;;;;;;;;;;;;;;;;4959936;28;19927;-94
2023/08/20 14:15:40;;;;;;;;;;;;;;;;;;4971868;28;20021;-93
2023/08/20 14:18:06;;;;;;;;;;;;;;;;;;4953223;28;19918;-94
2023/08/20 14:20:32;;;;;;;;;;;;;;;;;;4960016;28;19914;-93
2023/08/20 14:22:58;;;;;;;;;;;;;;;;;;4957312;28;19917;-93
2023/08/20 14:25:27;;;;;;;;;;;;;;;;;;4973901;28;19969;-92
2023/08/20 14:27:53;;;;;;;;;;;;;;;;;;4966235;28;19910;-94
2023/08/20 14:30:19;;;;;;;;;;;;;;;;;;4952841;28;19993;-93
2023/08/20 14:32:45;;;;;;;;;;;;;;;;;;4957854;28;20412;-92
2023/08/20 14:35:14;;;;;;;;;;;;;;;;;;4973750;28;19960;-93
2023/08/20 14:37:40;;;;;;;;;;;;;;;;;;4956761;28;19909;-94
2023/08/20 14:40:07;;;;;;;;;;;;;;;;;;4970528;28;19917;-92
2023/08/20 14:42:32;;;;;;;;;;;;;;;;;;4970372;28;19910;-93
2023/08/20 14:44:58;;;;;;;;;;;;;;;;;;4957289;28;19910;-93
2023/08/20 14:47:25;;;;;;;;;;;;;;;;;;4956492;28;19918;-93
2023/08/20 14:49:52;;;;;;;;;;;;;;;;;;4957095;28;19921;-92
2023/08/20 14:52:18;;;;;;;;;;;;;;;;;;4955895;28;19922;-92
2023/08/20 14:54:43;;;;;;;;;;;;;;;;;;4961006;28;19941;-94
2023/08/20 14:57:09;;;;;;;;;;;;;;;;;;4958629;28;19914;-93
2023/08/20 14:59:36;;;;;;;;;;;;;;;;;;4958705;28;19913;-92
2023/08/20 15:02:02;;;;;;;;;;;;;;;;;;4958340;28;20363;-93
2023/08/20 15:04:28;;;;;;;;;;;;;;;;;;4958707;28;19929;-93
2023/08/20 15:06:54;;;;;;;;;;;;;;;;;;4954553;28;19961;-93
2023/08/20 15:09:20;;;;;;;;;;;;;;;;;;4953346;28;19979;-92
2023/08/20 15:11:46;;;;;;;;;;;;;;;;;;4948778;28;19914;-93
2023/08/20 15:14:12;;;;;;;;;;;;;;;;;;4959130;28;19953;-93
2023/08/20 15:16:38;;;;;;;;;;;;;;;;;;4972696;28;19914;-90
2023/08/20 15:19:04;;;;;;;;;;;;;;;;;;4959066;28;19918;-90
2023/08/20 15:21:30;;;;;;;;;;;;;;;;;;4959269;28;19921;-90
2023/08/20 15:23:57;;;;;;;;;;;;;;;;;;4955589;28;20297;-90
2023/08/20 15:26:23;;;;;;;;;;;;;;;;;;4958548;28;19973;-89
2023/08/20 15:28:49;;;;;;;;;;;;;;;;;;4956805;28;20004;-90
2023/08/20 15:31:15;;;;;;;;;;;;;;;;;;4959360;28;19985;-90
2023/08/20 15:33:41;;;;;;;;;;;;;;;;;;4955685;28;19917;-90
2023/08/20 15:36:07;;;;;;;;;;;;;;;;;;4967118;28;19957;-90
2023/08/20 15:38:39;;;;;;;;;;;;;;;;;;4955816;28;19965;-90
2023/08/20 15:41:05;;;;;;;;;;;;;;;;;;4956888;28;19969;-90
2023/08/20 15:43:31;;;;;;;;;;;;;;;;;;4949597;28;19914;-89
2023/08/20 15:45:57;;;;;;;;;;;;;;;;;;4971312;28;19977;-90
2023/08/20 15:48:23;;;;;;;;;;;;;;;;;;4969808;28;19949;-90
2023/08/20 15:50:49;;;;;;;;;;;;;;;;;;4954488;28;20274;-90
2023/08/20 15:53:16;;;;;;;;;;;;;;;;;;4973407;28;19921;-90
2023/08/20 15:55:42;;;;;;;;;;;;;;;;;;4959894;28;19917;-90
2023/08/20 15:58:08;;;;;;;;;;;;;;;;;;4954714;28;19914;-90
2023/08/20 16:00:35;;;;;;;;;;;;;;;;;;4954142;28;19985;-91
2023/08/20 16:03:01;;;;;;;;;;;;;;;;;;4952186;28;19914;-90
2023/08/20 16:05:27;;;;;;;;;;;;;;;;;;4973341;28;19984;-90
2023/08/20 16:07:53;;;;;;;;;;;;;;;;;;4972346;28;19914;-89
2023/08/20 16:10:19;;;;;;;;;;;;;;;;;;4955497;28;19925;-90
2023/08/20 16:12:48;;;;;;;;;;;;;;;;;;4971416;28;19964;-89
2023/08/20 16:15:14;;;;;;;;;;;;;;;;;;4974506;28;19924;-90
2023/08/20 16:17:40;;;;;;;;;;;;;;;;;;4976434;28;19913;-90
2023/08/20 16:20:07;;;;;;;;;;;;;;;;;;4955813;28;20020;-89
2023/08/20 16:22:33;;;;;;;;;;;;;;;;;;4969643;28;19956;-90
2023/08/20 16:24:59;;;;;;;;;;;;;;;;;;4958413;28;19989;-90
2023/08/20 16:27:31;;;;;;;;;;;;;;;;;;4963474;28;19964;-91
2023/08/20 16:29:57;;;;;;;;;;;;;;;;;;4952344;28;19945;-91
2023/08/20 16:32:23;;;;;;;;;;;;;;;;;;4941171;28;19925;-91
2023/08/20 16:34:49;;;;;;;;;;;;;;;;;;4943784;28;19917;-90
2023/08/20 16:37:15;;;;;;;;;;;;;;;;;;4938610;29;19911;-90
2023/08/20 16:39:41;;;;;;;;;;;;;;;;;;4938159;28;19926;-91
2023/08/20 16:42:13;;;;;;;;;;;;;;;;;;4953826;28;19933;-91
2023/08/20 16:44:39;;;;;;;;;;;;;;;;;;4938823;28;19911;-90
2023/08/20 16:47:05;;;;;;;;;;;;;;;;;;4938192;29;19918;-90
2023/08/20 16:49:31;;;;;;;;;;;;;;;;;;4936116;28;19913;-90
2023/08/20 16:51:57;;;;;;;;;;;;;;;;;;4933786;29;20156;-90
2023/08/20 16:54:22;;;;;;;;;;;;;;;;;;4933071;28;20252;-90